Terminal Aerodrome Forecast
Issued by NWS Wakefield, VA

Home | Current Version | Previous Version | Text Only | Print | Product List | Glossary On
Versions: 1 2 3 4 5 6 7 8 9 10 11 12 13 14 15 16 17 18 19 20 21
000
FTUS41 KAKQ 281743 RRA
TAFSBY
TAF
KSBY 281743Z 2818/2918 VRB03KT P6SM VCTS OVC060CB
     FM282000 15007KT P6SM BKN060
     FM290300 13004KT P6SM -RA OVC060
     FM290600 15005KT 4SM RA BR OVC050=

USA.gov is the U.S. government's official web portal to all federal, state and local government web resources and services.